createdAt,value
2022-09-15T00:00:47.231Z,27.54
2022-09-15T00:03:50.691Z,27.31
2022-09-15T00:06:54.249Z,27.27
2022-09-15T00:09:57.561Z,27.02
2022-09-15T00:13:00.665Z,26.87
2022-09-15T00:16:04.610Z,27.01
2022-09-15T00:19:07.860Z,26.89
2022-09-15T00:22:11.113Z,26.63
2022-09-15T00:25:14.748Z,26.68
2022-09-15T00:28:19.703Z,26.76
2022-09-15T00:31:24.666Z,26.76
2022-09-15T00:34:30.136Z,26.39
2022-09-15T00:37:34.309Z,26.13
2022-09-15T00:40:49.544Z,26.06
2022-09-15T00:44:00.054Z,26.17
2022-09-15T00:47:18.666Z,26.10
2022-09-15T00:50:22.973Z,26.32
2022-09-15T00:53:27.307Z,25.90
2022-09-15T00:56:31.662Z,25.85
2022-09-15T00:59:36.349Z,25.36
2022-09-15T01:02:40.893Z,25.58
2022-09-15T01:05:49.343Z,25.52
2022-09-15T01:08:57.880Z,25.68
2022-09-15T01:12:00.960Z,25.39
2022-09-15T01:15:04.174Z,25.30
2022-09-15T01:18:45.158Z,25.47
2022-09-15T01:21:49.284Z,25.11
2022-09-15T01:24:58.080Z,24.99
2022-09-15T01:28:19.219Z,25.11
2022-09-15T01:31:30.867Z,24.75
2022-09-15T01:34:42.771Z,25.18
2022-09-15T01:38:00.211Z,24.90
2022-09-15T01:41:15.006Z,24.75
2022-09-15T01:44:24.074Z,24.95
2022-09-15T01:47:29.159Z,24.61
2022-09-15T01:50:36.299Z,24.47
2022-09-15T01:53:39.482Z,24.33
2022-09-15T01:56:42.517Z,23.99
2022-09-15T01:59:45.626Z,24.13
2022-09-15T02:02:56.449Z,24.04
2022-09-15T02:06:03.480Z,23.74
2022-09-15T02:09:30.233Z,23.96
2022-09-15T02:12:43.603Z,24.09
2022-09-15T02:15:54.670Z,24.06
2022-09-15T02:19:06.046Z,24.23
2022-09-15T02:22:36.318Z,24.13
2022-09-15T02:25:43.754Z,23.38
2022-09-15T02:28:49.805Z,23.34
2022-09-15T02:31:54.881Z,23.44
2022-09-15T02:34:59.339Z,23.45
2022-09-15T02:38:03.755Z,23.68
2022-09-15T02:41:06.976Z,23.46
2022-09-15T02:44:10.522Z,23.44
2022-09-15T02:47:13.619Z,23.47
2022-09-15T02:50:17.799Z,23.41
2022-09-15T02:53:20.827Z,23.34
2022-09-15T02:56:23.905Z,23.31
2022-09-15T02:59:27.248Z,23.47
2022-09-15T03:02:30.501Z,23.36
2022-09-15T03:05:33.527Z,23.31
2022-09-15T03:08:36.552Z,23.19
2022-09-15T03:11:39.572Z,23.22
2022-09-15T03:14:42.695Z,23.11
2022-09-15T03:17:46.860Z,23.18
2022-09-15T03:20:49.948Z,22.99
2022-09-15T03:23:52.960Z,23.07
2022-09-15T03:26:56.179Z,22.92
2022-09-15T03:29:59.174Z,22.80
2022-09-15T03:33:02.246Z,22.54
2022-09-15T03:36:05.893Z,22.80
2022-09-15T03:39:09.356Z,22.36
2022-09-15T03:42:12.386Z,22.82
2022-09-15T03:45:15.655Z,22.67
2022-09-15T03:48:18.671Z,22.66
2022-09-15T03:51:21.943Z,22.55
2022-09-15T03:54:27.925Z,22.37
2022-09-15T03:57:31.131Z,22.69
2022-09-15T04:00:34.388Z,22.38
2022-09-15T04:03:43.206Z,22.42
2022-09-15T04:06:50.466Z,22.13
2022-09-15T04:09:53.505Z,22.19
2022-09-15T04:12:56.634Z,22.29
2022-09-15T04:16:05.620Z,21.88
2022-09-15T04:19:10.215Z,21.95
2022-09-15T04:22:17.546Z,22.25
2022-09-15T04:25:20.917Z,22.22
2022-09-15T04:28:25.409Z,21.94
2022-09-15T04:31:30.556Z,21.90
2022-09-15T04:34:36.143Z,21.86
2022-09-15T04:37:42.396Z,22.11
2022-09-15T04:40:45.452Z,22.06
2022-09-15T04:43:48.634Z,22.11
2022-09-15T04:46:51.757Z,22.03
2022-09-15T04:49:54.804Z,22.18
2022-09-15T04:52:57.887Z,22.13
2022-09-15T04:56:05.645Z,22.10
2022-09-15T04:59:15.148Z,21.84
2022-09-15T05:02:18.227Z,21.66
2022-09-15T05:05:21.701Z,22.06
2022-09-15T05:08:25.296Z,22.10
2022-09-15T05:11:28.543Z,21.75
2022-09-15T05:14:32.068Z,21.67
2022-09-15T05:17:35.544Z,21.98
2022-09-15T05:20:38.556Z,22.06
2022-09-15T05:23:42.100Z,21.53
2022-09-15T05:26:45.137Z,21.76
2022-09-15T05:29:48.187Z,21.63
2022-09-15T05:32:51.238Z,21.40
2022-09-15T05:35:56.620Z,21.53
2022-09-15T05:38:59.750Z,21.74
2022-09-15T05:42:03.865Z,21.40
2022-09-15T05:45:07.472Z,21.32
2022-09-15T05:48:11.459Z,21.46
2022-09-15T05:51:15.050Z,21.71
2022-09-15T05:54:18.157Z,21.67
2022-09-15T05:57:21.179Z,21.63
2022-09-15T06:00:24.260Z,21.31
2022-09-15T06:03:30.756Z,21.10
2022-09-15T06:06:34.192Z,21.40
2022-09-15T06:09:40.373Z,21.15
2022-09-15T06:12:43.373Z,21.35
2022-09-15T06:15:47.133Z,21.43
2022-09-15T06:18:51.652Z,21.47
2022-09-15T06:21:54.771Z,21.48
2022-09-15T06:24:57.839Z,21.21
2022-09-15T06:28:01.027Z,21.08
2022-09-15T06:31:04.769Z,20.87
2022-09-15T06:34:07.996Z,21.06
2022-09-15T06:37:11.115Z,21.22
2022-09-15T06:40:14.131Z,20.87
2022-09-15T06:43:17.219Z,20.95
2022-09-15T06:46:22.734Z,21.06
2022-09-15T06:49:26.023Z,20.87
2022-09-15T06:52:29.082Z,21.16
2022-09-15T06:55:32.453Z,21.15
2022-09-15T06:58:36.875Z,20.81
2022-09-15T07:01:40.114Z,20.98
2022-09-15T07:04:45.291Z,21.11
2022-09-15T07:07:48.340Z,20.87
2022-09-15T07:10:51.516Z,20.87
2022-09-15T07:13:54.695Z,21.01
2022-09-15T07:16:59.882Z,20.79
2022-09-15T07:20:03.124Z,20.81
2022-09-15T07:23:06.144Z,20.89
2022-09-15T07:26:23.763Z,20.63
2022-09-15T07:29:26.970Z,20.65
2022-09-15T07:32:35.445Z,20.70
2022-09-15T07:35:45.411Z,20.85
2022-09-15T07:38:49.802Z,20.71
2022-09-15T07:41:52.832Z,20.56
2022-09-15T07:44:55.831Z,20.39
2022-09-15T07:47:58.873Z,20.55
2022-09-15T07:51:02.008Z,20.49
2022-09-15T07:54:05.050Z,20.63
2022-09-15T07:57:08.093Z,20.56
2022-09-15T08:00:11.697Z,20.70
2022-09-15T08:03:15.716Z,20.79
2022-09-15T08:06:22.289Z,20.75
2022-09-15T08:09:25.402Z,20.67
2022-09-15T08:12:28.463Z,20.56
2022-09-15T08:15:31.540Z,20.83
2022-09-15T08:18:35.376Z,20.53
2022-09-15T08:21:38.422Z,20.50
2022-09-15T08:24:41.435Z,20.23
2022-09-15T08:27:44.500Z,20.37
2022-09-15T08:30:47.523Z,20.11
2022-09-15T08:33:52.084Z,20.26
2022-09-15T08:36:55.060Z,20.29
2022-09-15T08:39:58.367Z,20.05
2022-09-15T08:43:06.727Z,20.33
2022-09-15T08:46:13.883Z,20.19
2022-09-15T08:49:35.793Z,20.11
2022-09-15T08:52:51.443Z,20.37
2022-09-15T08:56:00.911Z,20.31
2022-09-15T08:59:04.077Z,20.50
2022-09-15T09:02:13.197Z,20.41
2022-09-15T09:05:49.904Z,20.38
2022-09-15T09:09:16.376Z,20.30
2022-09-15T09:12:45.216Z,20.35
2022-09-15T09:16:16.022Z,20.06
2022-09-15T09:19:40.237Z,20.26
2022-09-15T09:22:45.805Z,20.02
2022-09-15T09:25:49.199Z,20.10
2022-09-15T09:29:00.914Z,20.38
2022-09-15T09:32:04.597Z,20.45
2022-09-15T09:35:39.605Z,20.41
2022-09-15T09:38:44.859Z,20.31
2022-09-15T09:41:47.944Z,19.96
2022-09-15T09:44:51.057Z,19.76
2022-09-15T09:47:59.565Z,19.97
2022-09-15T09:51:04.744Z,20.06
2022-09-15T09:54:13.366Z,20.24
2022-09-15T09:57:36.609Z,20.21
2022-09-15T10:00:42.931Z,20.20
2022-09-15T10:03:46.145Z,20.37
2022-09-15T10:06:49.216Z,20.37
2022-09-15T10:10:00.943Z,20.46
2022-09-15T10:13:04.580Z,20.11
2022-09-15T10:16:07.902Z,20.29
2022-09-15T10:19:14.851Z,20.42
2022-09-15T10:22:23.243Z,20.61
2022-09-15T10:25:39.478Z,20.13
2022-09-15T10:29:18.379Z,20.24
2022-09-15T10:32:30.277Z,20.19
2022-09-15T10:35:33.810Z,20.08
2022-09-15T10:38:42.822Z,19.78
2022-09-15T10:42:04.469Z,19.98
2022-09-15T10:45:23.075Z,19.85
2022-09-15T10:48:46.794Z,20.02
2022-09-15T10:52:07.066Z,20.08
2022-09-15T10:55:36.771Z,19.99
2022-09-15T10:58:58.487Z,19.94
2022-09-15T11:02:34.123Z,19.94
2022-09-15T11:06:10.291Z,20.03
2022-09-15T11:09:21.140Z,19.77
2022-09-15T11:12:51.664Z,19.95
2022-09-15T11:16:10.988Z,19.71
2022-09-15T11:19:57.546Z,19.90
2022-09-15T11:23:20.823Z,19.85
2022-09-15T11:26:44.562Z,20.03
2022-09-15T11:30:17.790Z,19.83
2022-09-15T11:33:28.680Z,19.58
2022-09-15T11:37:03.819Z,20.12
2022-09-15T11:40:36.110Z,20.23
2022-09-15T11:43:44.261Z,20.31
2022-09-15T11:46:49.976Z,20.03
2022-09-15T11:49:55.877Z,19.94
2022-09-15T11:53:02.051Z,19.80
2022-09-15T11:56:16.280Z,19.85
2022-09-15T11:59:44.025Z,20.07
2022-09-15T12:02:52.802Z,20.12
2022-09-15T12:05:59.761Z,20.04
2022-09-15T12:09:07.788Z,20.07
2022-09-15T12:12:17.849Z,20.10
2022-09-15T12:15:22.070Z,19.84
2022-09-15T12:18:39.946Z,20.10
2022-09-15T12:22:25.567Z,20.27
2022-09-15T12:26:11.859Z,20.32
2022-09-15T12:29:41.796Z,20.42
2022-09-15T12:32:45.648Z,20.45
2022-09-15T12:35:48.688Z,20.33
2022-09-15T12:38:51.870Z,20.49
2022-09-15T12:42:08.023Z,20.42
2022-09-15T12:45:34.621Z,20.75
2022-09-15T12:48:37.713Z,20.65
2022-09-15T12:51:41.425Z,20.81
2022-09-15T12:54:45.727Z,20.93
2022-09-15T12:58:18.940Z,21.27
2022-09-15T13:01:25.186Z,21.33
2022-09-15T13:04:43.636Z,21.63
2022-09-15T13:07:57.591Z,21.84
2022-09-15T13:11:07.723Z,22.07
2022-09-15T13:14:23.773Z,22.20
2022-09-15T13:17:26.947Z,22.47
2022-09-15T13:20:32.909Z,22.79
2022-09-15T13:23:40.857Z,22.92
2022-09-15T13:26:45.070Z,23.06
2022-09-15T13:29:51.635Z,23.08
2022-09-15T13:33:06.725Z,23.04
2022-09-15T13:38:04.577Z,23.55
2022-09-15T13:40:13.348Z,23.51
2022-09-15T13:43:40.168Z,23.52
2022-09-15T13:46:53.775Z,23.72
2022-09-15T13:50:19.694Z,23.94
2022-09-15T13:53:51.365Z,24.34
2022-09-15T13:56:54.583Z,24.65
2022-09-15T13:59:57.684Z,24.92
2022-09-15T14:03:10.774Z,24.83
2022-09-15T14:06:41.197Z,24.78
2022-09-15T14:09:46.297Z,25.04
2022-09-15T14:12:49.966Z,25.27
2022-09-15T14:16:11.875Z,25.40
2022-09-15T14:19:31.905Z,25.36
2022-09-15T14:22:35.481Z,25.58
2022-09-15T14:25:38.779Z,25.41
2022-09-15T14:28:42.462Z,25.79
2022-09-15T14:31:45.950Z,26.00
2022-09-15T14:34:49.973Z,26.36
2022-09-15T14:38:00.507Z,26.29
2022-09-15T14:41:03.539Z,26.35
2022-09-15T14:47:48.506Z,26.43
2022-09-15T14:51:02.421Z,26.42
2022-09-15T14:54:07.902Z,26.81
2022-09-15T14:57:11.342Z,26.81
2022-09-15T15:00:18.939Z,26.91
2022-09-15T15:03:34.309Z,27.10
2022-09-15T15:06:54.167Z,27.54
2022-09-15T15:10:00.931Z,28.05
2022-09-15T15:13:13.978Z,27.67
2022-09-15T15:16:24.208Z,27.86
2022-09-15T15:19:32.348Z,28.23
2022-09-15T15:22:36.525Z,28.22
2022-09-15T15:25:39.662Z,28.43
2022-09-15T15:28:42.757Z,28.62
2022-09-15T15:31:45.890Z,28.87
2022-09-15T15:34:59.553Z,28.80
2022-09-15T15:38:18.972Z,29.25
2022-09-15T15:41:31.234Z,29.48
2022-09-15T15:44:34.435Z,29.74
2022-09-15T15:47:38.931Z,29.15
2022-09-15T15:50:41.934Z,29.70
2022-09-15T15:53:45.004Z,30.18
2022-09-15T15:56:48.041Z,29.58
2022-09-15T15:59:57.299Z,29.67
2022-09-15T16:03:00.303Z,29.95
2022-09-15T16:06:03.367Z,30.34
2022-09-15T16:09:06.688Z,30.34
2022-09-15T16:12:10.289Z,29.70
2022-09-15T16:15:14.586Z,29.82
2022-09-15T16:18:17.613Z,29.72
2022-09-15T16:21:40.677Z,29.38
2022-09-15T16:24:43.722Z,28.84
2022-09-15T16:27:46.728Z,29.95
2022-09-15T16:30:49.908Z,30.82
2022-09-15T16:33:54.969Z,30.74
2022-09-15T16:36:58.135Z,30.42
2022-09-15T16:40:01.340Z,30.77
2022-09-15T16:43:05.148Z,31.01
2022-09-15T16:46:10.281Z,31.02
2022-09-15T16:49:13.481Z,30.98
2022-09-15T16:52:16.487Z,31.32
2022-09-15T16:55:27.985Z,31.71
2022-09-15T16:58:31.026Z,30.79
2022-09-15T17:01:34.181Z,31.04
2022-09-15T17:04:37.210Z,31.01
2022-09-15T17:07:40.277Z,30.93
2022-09-15T17:10:43.653Z,30.68
2022-09-15T17:13:47.585Z,31.42
2022-09-15T17:16:52.138Z,30.91
2022-09-15T17:19:55.161Z,31.12
2022-09-15T17:22:58.168Z,31.59
2022-09-15T17:26:03.578Z,31.62
2022-09-15T17:29:06.658Z,31.23
2022-09-15T17:32:09.754Z,31.98
2022-09-15T17:35:20.188Z,32.48
2022-09-15T17:38:23.382Z,30.66
2022-09-15T17:41:26.440Z,30.54
2022-09-15T17:44:30.598Z,31.25
2022-09-15T17:47:34.321Z,31.78
2022-09-15T17:50:37.840Z,31.57
2022-09-15T17:53:42.454Z,31.38
2022-09-15T17:56:45.535Z,31.02
2022-09-15T17:59:50.543Z,31.28
2022-09-15T18:02:59.391Z,31.02
2022-09-15T18:06:08.085Z,31.22
2022-09-15T18:09:11.288Z,31.59
2022-09-15T18:12:14.863Z,32.01
2022-09-15T18:15:20.899Z,31.66
2022-09-15T18:18:28.238Z,31.67
2022-09-15T18:21:31.327Z,31.22
2022-09-15T18:24:34.314Z,30.96
2022-09-15T18:27:37.370Z,31.14
2022-09-15T18:30:42.741Z,31.16
2022-09-15T18:33:45.867Z,31.44
2022-09-15T18:36:48.867Z,31.01
2022-09-15T18:39:56.917Z,30.45
2022-09-15T18:42:59.939Z,30.32
2022-09-15T18:46:03.033Z,30.78
2022-09-15T18:49:06.143Z,31.56
2022-09-15T18:52:09.182Z,31.09
2022-09-15T18:55:18.797Z,30.61
2022-09-15T18:58:21.939Z,30.76
2022-09-15T19:01:25.173Z,31.37
2022-09-15T19:04:31.838Z,31.46
2022-09-15T19:07:36.376Z,31.44
2022-09-15T19:10:39.569Z,31.12
2022-09-15T19:13:44.697Z,31.27
2022-09-15T19:16:57.506Z,31.43
2022-09-15T19:20:01.595Z,31.17
2022-09-15T19:23:04.671Z,31.81
2022-09-15T19:26:12.243Z,31.52
2022-09-15T19:29:15.443Z,31.70
2022-09-15T19:32:19.521Z,31.60
2022-09-15T19:35:22.774Z,31.81
2022-09-15T19:38:25.827Z,31.67
2022-09-15T19:41:28.872Z,31.07
2022-09-15T19:44:31.923Z,30.63
2022-09-15T19:47:35.336Z,31.14
2022-09-15T19:50:39.246Z,31.36
2022-09-15T19:53:42.886Z,31.28
2022-09-15T19:56:45.950Z,31.58
2022-09-15T19:59:49.029Z,31.70
2022-09-15T20:02:52.053Z,31.44
2022-09-15T20:05:57.017Z,31.37
2022-09-15T20:09:00.080Z,31.45
2022-09-15T20:12:03.505Z,31.51
2022-09-15T20:15:07.071Z,31.39
2022-09-15T20:18:10.449Z,31.30
2022-09-15T20:21:26.927Z,31.00
2022-09-15T20:24:35.956Z,30.39
2022-09-15T20:27:40.512Z,30.77
2022-09-15T20:30:43.740Z,31.06
2022-09-15T20:33:47.927Z,31.45
2022-09-15T20:36:50.945Z,30.83
2022-09-15T20:39:54.240Z,31.26
2022-09-15T20:42:57.388Z,30.92
2022-09-15T20:46:02.349Z,30.94
2022-09-15T20:49:05.537Z,31.22
2022-09-15T20:52:08.651Z,30.59
2022-09-15T20:55:11.731Z,30.82
2022-09-15T20:58:14.724Z,31.20
2022-09-15T21:01:21.146Z,31.39
2022-09-15T21:04:24.186Z,31.16
2022-09-15T21:07:27.209Z,31.45
2022-09-15T21:10:31.245Z,31.47
2022-09-15T21:13:38.389Z,31.44
2022-09-15T21:16:41.572Z,31.30
2022-09-15T21:19:44.638Z,31.73
2022-09-15T21:22:47.860Z,31.68
2022-09-15T21:26:02.238Z,31.46
2022-09-15T21:29:05.318Z,31.31
2022-09-15T21:32:08.777Z,31.41
2022-09-15T21:35:12.046Z,31.33
2022-09-15T21:38:16.966Z,31.13
2022-09-15T21:41:21.761Z,31.17
2022-09-15T21:44:25.244Z,30.84
2022-09-15T21:47:28.264Z,30.77
2022-09-15T21:50:31.314Z,30.74
2022-09-15T21:53:34.493Z,31.09
2022-09-15T21:56:37.962Z,30.49
2022-09-15T21:59:40.954Z,30.66
2022-09-15T22:02:44.069Z,30.19
2022-09-15T22:05:48.157Z,30.55
2022-09-15T22:08:51.176Z,30.54
2022-09-15T22:11:54.168Z,30.60
2022-09-15T22:14:57.399Z,30.42
2022-09-15T22:18:00.643Z,30.31
2022-09-15T22:21:18.021Z,30.64
2022-09-15T22:24:21.060Z,30.23
2022-09-15T22:27:24.163Z,30.70
2022-09-15T22:30:27.178Z,30.65
2022-09-15T22:33:30.359Z,30.56
2022-09-15T22:36:33.588Z,31.26
2022-09-15T22:39:57.961Z,33.14
2022-09-15T22:42:59.753Z,31.23
2022-09-15T22:46:03.051Z,30.50
2022-09-15T22:49:06.439Z,30.14
2022-09-15T22:52:09.602Z,30.05
2022-09-15T22:55:12.867Z,30.21
2022-09-15T22:58:15.870Z,29.99
2022-09-15T23:01:21.408Z,30.01
2022-09-15T23:04:26.459Z,29.61
2022-09-15T23:07:29.802Z,29.91
2022-09-15T23:10:32.983Z,29.88
2022-09-15T23:13:36.120Z,29.38
2022-09-15T23:16:39.367Z,29.18
2022-09-15T23:19:42.405Z,29.21
2022-09-15T23:22:45.423Z,29.31
2022-09-15T23:25:48.542Z,29.44
2022-09-15T23:28:51.707Z,29.22
2022-09-15T23:31:54.742Z,29.44
2022-09-15T23:34:57.910Z,28.86
2022-09-15T23:38:00.935Z,29.08
2022-09-15T23:41:04.040Z,28.64
2022-09-15T23:44:07.015Z,28.67
2022-09-15T23:47:10.188Z,28.60
2022-09-15T23:50:15.253Z,28.40
2022-09-15T23:53:18.548Z,28.31
2022-09-15T23:56:22.044Z,28.56
2022-09-15T23:59:25.101Z,28.54
